Time;durP1;ratioP1;P1;durP2;ratioP2;P2;SDS_P1;SDS_P2;PMS_P1;PMS_P2;Temp;Humidity;BMP_temperature;BMP_pressure;BME280_temperature;BME280_humidity;BME280_pressure;Samples;Min_cycle;Max_cycle;Signal;HPM_P1;HPM_P2
2022/07/21 00:03:24;;;;;;;14.60;8.10;;;;;;;22.11;88.68;100806.66;656274;1283;139045;-82
2022/07/21 00:18:30;;;;;;;21.30;10.50;;;;;;;21.72;89.01;100817.55;656086;1283;138986;-83
2022/07/21 00:33:33;;;;;;;10.70;7.00;;;;;;;21.42;90.27;100811.98;656204;1283;139188;-83
2022/07/21 00:48:36;;;;;;;14.70;9.30;;;;;;;21.28;91.46;100822.06;656126;1283;139694;-83
2022/07/21 01:03:40;;;;;;;11.40;8.00;;;;;;;21.12;92.50;100833.08;655478;1283;139067;-83
2022/07/21 01:18:43;;;;;;;9.90;7.20;;;;;;;20.86;92.35;100830.79;656086;1282;138984;-83
2022/07/21 01:33:47;;;;;;;11.70;7.80;;;;;;;20.69;92.66;100834.34;656225;1283;139011;-83
2022/07/21 01:48:51;;;;;;;9.80;6.40;;;;;;;20.53;93.59;100816.30;656026;1282;139467;-84
2022/07/21 02:03:58;;;;;;;11.70;7.20;;;;;;;20.42;93.81;100819.06;656338;1282;138949;-83
2022/07/21 02:19:02;;;;;;;16.70;8.10;;;;;;;19.95;94.04;100814.04;656148;1283;139824;-84
2022/07/21 02:34:06;;;;;;;11.30;8.00;;;;;;;19.84;95.34;100810.45;656231;1283;139130;-83
2022/07/21 02:49:10;;;;;;;11.70;7.00;;;;;;;19.85;95.81;100814.02;662146;1283;139517;-85
2022/07/21 03:04:15;;;;;;;11.10;7.00;;;;;;;19.72;96.35;100818.34;658387;1283;139625;-84
2022/07/21 03:19:19;;;;;;;9.60;6.80;;;;;;;19.67;96.88;100821.48;657022;1283;139861;-83
2022/07/21 03:34:22;;;;;;;11.40;7.70;;;;;;;19.62;97.17;100824.72;656379;1283;139933;-84
2022/07/21 03:49:26;;;;;;;9.00;5.70;;;;;;;19.73;97.44;100818.58;656274;1283;139635;-84
2022/07/21 04:04:30;;;;;;;12.80;7.50;;;;;;;20.07;97.10;100810.35;656359;1283;141669;-84
2022/07/21 04:19:33;;;;;;;15.50;7.30;;;;;;;20.46;96.07;100812.21;655156;1284;140231;-84
2022/07/21 04:34:36;;;;;;;16.10;10.60;;;;;;;21.00;95.19;100818.61;655704;1284;140486;-84
2022/07/21 04:49:39;;;;;;;8.80;5.40;;;;;;;21.60;93.71;100825.74;654789;1283;140043;-85
2022/07/21 05:04:43;;;;;;;10.40;5.10;;;;;;;22.15;90.84;100822.14;656454;1277;139123;-87
2022/07/21 05:19:49;;;;;;;9.00;4.40;;;;;;;22.71;89.17;100821.91;659697;1278;139706;-87
2022/07/21 05:35:00;;;;;;;5.80;3.70;;;;;;;23.42;85.86;100795.34;658598;1278;139712;-90
2022/07/21 05:50:04;;;;;;;4.70;3.70;;;;;;;23.89;82.08;100794.58;655272;1278;139861;-88
2022/07/21 06:05:10;;;;;;;9.80;3.90;;;;;;;24.34;78.18;100804.98;656839;1278;139475;-87
2022/07/21 06:20:14;;;;;;;3.40;2.90;;;;;;;24.93;74.67;100814.30;657637;1277;138621;-89
2022/07/21 06:35:17;;;;;;;4.50;2.60;;;;;;;25.40;70.86;100810.11;656844;1280;138988;-89
2022/07/21 06:50:20;;;;;;;5.70;2.60;;;;;;;25.83;68.06;100804.02;656419;1278;139911;-88
2022/07/21 07:05:27;;;;;;;4.50;2.70;;;;;;;26.27;65.40;100817.07;657395;1277;139955;-88
2022/07/21 07:20:31;;;;;;;5.00;2.90;;;;;;;26.65;62.58;100808.06;657488;1277;139950;-88
2022/07/21 07:35:34;;;;;;;5.60;3.30;;;;;;;27.18;60.80;100803.77;658197;1277;138471;-84
2022/07/21 07:50:38;;;;;;;6.40;2.30;;;;;;;27.94;59.82;100801.58;657853;1278;138887;-81
2022/07/21 08:05:41;;;;;;;3.30;2.50;;;;;;;28.51;56.59;100803.77;658299;1278;138282;-83
2022/07/21 08:20:47;;;;;;;5.80;2.90;;;;;;;29.17;56.19;100824.38;657635;1278;138230;-82
2022/07/21 08:35:50;;;;;;;6.50;3.00;;;;;;;30.08;56.38;100813.39;657006;1278;139585;-82
2022/07/21 08:50:54;;;;;;;5.70;3.00;;;;;;;30.52;54.61;100806.15;657510;1280;139601;-82
2022/07/21 09:06:08;;;;;;;5.30;2.90;;;;;;;30.71;54.75;100810.16;657996;1279;138420;-84
2022/07/21 09:21:16;;;;;;;12.20;3.70;;;;;;;31.71;53.89;100795.37;657099;1280;138787;-84
2022/07/21 09:36:20;;;;;;;7.20;3.80;;;;;;;33.01;51.64;100770.14;656696;1279;138583;-84
2022/07/21 09:51:29;;;;;;;6.00;3.30;;;;;;;33.23;52.35;100753.48;656172;1280;138534;-85
2022/07/21 10:06:39;;;;;;;3.50;2.90;;;;;;;33.31;51.02;100749.86;657807;1280;138386;-84
2022/07/21 10:21:58;;;;;;;7.20;2.40;;;;;;;33.83;49.10;100737.25;659279;1279;139345;-85
2022/07/21 10:37:02;;;;;;;3.50;2.20;;;;;;;34.71;48.82;100719.36;657093;1280;138410;-84
2022/07/21 10:52:06;;;;;;;3.40;2.60;;;;;;;35.38;47.56;100706.94;655514;1280;138955;-84
2022/07/21 11:07:10;;;;;;;5.30;3.50;;;;;;;36.06;45.66;100708.75;662613;1278;139906;-84
2022/07/21 11:22:13;;;;;;;5.20;2.50;;;;;;;36.05;43.99;100699.41;656826;1280;566775;-84
2022/07/21 11:37:32;;;;;;;4.60;2.30;;;;;;;36.91;43.61;100683.45;657287;1280;142037;-84
2022/07/21 11:52:40;;;;;;;4.70;2.80;;;;;;;37.40;42.32;100676.15;656938;1280;138188;-83
2022/07/21 12:07:46;;;;;;;6.60;3.30;;;;;;;37.18;41.85;100668.98;657269;1280;138446;-84
2022/07/21 12:22:50;;;;;;;4.90;3.00;;;;;;;37.74;41.92;100664.20;657264;1280;138412;-83
2022/07/21 12:37:57;;;;;;;7.90;3.50;;;;;;;37.18;41.53;100652.08;655965;1278;140007;-83
2022/07/21 12:53:02;;;;;;;9.70;4.80;;;;;;;37.01;41.00;100630.72;657233;1280;139344;-82
2022/07/21 13:08:05;;;;;;;4.90;2.50;;;;;;;37.60;40.34;100625.44;657372;1280;138303;-83
2022/07/21 13:23:09;;;;;;;8.10;2.70;;;;;;;38.70;40.16;100612.17;658724;1280;138307;-82
2022/07/21 13:38:15;;;;;;;;;;;;;;;37.85;39.63;100605.11;657178;1280;139406;-82
2022/07/21 13:53:19;;;;;;;4.90;3.00;;;;;;;38.35;39.33;100577.71;656575;1279;125904;-82
2022/07/21 14:08:22;;;;;;;143.80;87.60;;;;;;;38.42;39.25;100561.17;662386;1278;138698;-83
2022/07/21 14:23:26;;;;;;;7.10;3.20;;;;;;;38.19;39.67;100553.91;657883;1279;138873;-84
2022/07/21 14:38:30;;;;;;;6.40;2.90;;;;;;;38.63;38.89;100540.60;656575;1279;139490;-83
2022/07/21 14:53:34;;;;;;;5.40;3.00;;;;;;;38.46;38.18;100528.58;657145;1280;138626;-82
2022/07/21 15:08:37;;;;;;;6.00;3.40;;;;;;;38.05;39.17;100519.07;659905;1279;139325;-81
2022/07/21 15:23:41;;;;;;;10.10;4.60;;;;;;;37.51;39.73;100498.13;662905;1279;140389;-81
2022/07/21 15:38:45;;;;;;;8.40;3.50;;;;;;;37.76;40.34;100492.52;656801;1279;139508;-81
2022/07/21 15:53:49;;;;;;;7.90;4.40;;;;;;;37.43;40.98;100486.68;657510;1279;138230;-81
2022/07/21 16:08:55;;;;;;;7.10;3.40;;;;;;;37.08;41.79;100487.77;656178;1278;139702;-81
2022/07/21 16:24:01;;;;;;;8.20;4.10;;;;;;;36.76;41.63;100473.66;658533;1278;139329;-82
2022/07/21 16:39:04;;;;;;;6.90;3.80;;;;;;;36.22;41.90;100474.20;656051;1279;140000;-82
2022/07/21 16:54:09;;;;;;;7.10;3.90;;;;;;;36.03;42.69;100460.28;655247;1278;139312;-82
2022/07/21 17:09:15;;;;;;;6.30;3.90;;;;;;;35.66;43.93;100443.44;655015;1279;139754;-81
2022/07/21 17:24:19;;;;;;;12.00;6.20;;;;;;;35.24;44.58;100430.83;654961;1280;138341;-82
2022/07/21 17:39:22;;;;;;;9.50;4.50;;;;;;;34.66;45.71;100422.34;654960;1279;139306;-82
2022/07/21 17:54:25;;;;;;;15.30;7.10;;;;;;;34.04;46.77;100406.18;654780;1280;140001;-80
2022/07/21 18:09:29;;;;;;;11.90;5.30;;;;;;;33.44;47.98;100399.92;655191;1279;139686;-82
2022/07/21 18:24:33;;;;;;;7.20;4.40;;;;;;;32.82;48.76;100394.39;655047;1280;140719;-86
2022/07/21 18:39:36;;;;;;;12.50;5.90;;;;;;;32.15;49.44;100393.41;656413;1280;139847;-84
2022/07/21 18:54:39;;;;;;;13.70;5.70;;;;;;;31.09;51.72;100393.67;655391;1280;140057;-84
2022/07/21 19:09:45;;;;;;;11.00;5.60;;;;;;;30.20;54.35;100395.36;655273;1280;140603;-85
2022/07/21 19:24:48;;;;;;;11.20;5.30;;;;;;;29.66;56.28;100396.94;656773;1280;142170;-85
2022/07/21 19:39:53;;;;;;;12.60;5.90;;;;;;;29.17;57.54;100391.09;655352;1280;140285;-86
2022/07/21 19:54:59;;;;;;;12.50;5.80;;;;;;;28.66;58.77;100382.85;655273;1280;139023;-87
2022/07/21 20:10:05;;;;;;;24.90;13.30;;;;;;;28.20;59.85;100372.71;655073;1278;139292;-86
2022/07/21 20:25:10;;;;;;;24.50;11.80;;;;;;;27.72;62.60;100366.23;655657;1280;139367;-85
2022/07/21 20:40:15;;;;;;;29.10;14.20;;;;;;;27.24;65.45;100361.85;656701;1279;138750;-87
2022/07/21 20:55:29;;;;;;;15.20;6.00;;;;;;;26.96;65.96;100358.64;655077;1279;139300;-84
2022/07/21 21:10:49;;;;;;;20.20;11.10;;;;;;;26.72;64.77;100358.26;655287;1280;138396;-85
2022/07/21 21:25:53;;;;;;;23.90;10.10;;;;;;;26.49;65.50;100357.86;656841;1280;140481;-85
2022/07/21 21:40:57;;;;;;;29.60;13.90;;;;;;;26.14;67.18;100349.20;659144;1280;139467;-86
2022/07/21 21:56:00;;;;;;;15.80;9.40;;;;;;;25.72;69.08;100345.11;660245;1279;140265;-85
2022/07/21 22:11:03;;;;;;;24.70;10.80;;;;;;;25.37;70.46;100339.55;659444;1280;140194;-85
2022/07/21 22:26:08;;;;;;;13.80;7.90;;;;;;;24.88;72.11;100336.54;659564;1280;140435;-85
2022/07/21 22:41:13;;;;;;;12.90;7.00;;;;;;;24.53;72.06;100332.74;659193;1280;139467;-85
2022/07/21 22:56:20;;;;;;;20.50;9.00;;;;;;;24.24;73.46;100332.64;657864;1279;139821;-85
2022/07/21 23:11:23;;;;;;;14.40;7.20;;;;;;;23.76;76.16;100336.85;660331;1279;386428;-85
2022/07/21 23:26:26;;;;;;;13.00;6.80;;;;;;;23.33;76.38;100338.60;659257;1280;140875;-85
2022/07/21 23:41:30;;;;;;;10.40;6.50;;;;;;;23.27;77.81;100358.14;659491;1280;139982;-85
2022/07/21 23:56:33;;;;;;;13.70;6.60;;;;;;;23.22;76.70;100363.54;659099;1280;138796;-85
